createdAt,value
2022-11-30T00:01:11.511Z,90.40
2022-11-30T00:04:15.204Z,90.30
2022-11-30T00:07:18.974Z,90.30
2022-11-30T00:10:22.818Z,90.30
2022-11-30T00:13:28.475Z,90.40
2022-11-30T00:16:32.272Z,90.30
2022-11-30T00:19:35.967Z,90.30
2022-11-30T00:22:39.739Z,90.30
2022-11-30T00:25:43.422Z,90.30
2022-11-30T00:28:49.111Z,90.30
2022-11-30T00:31:52.829Z,90.30
2022-11-30T00:34:56.847Z,90.30
2022-11-30T00:38:02.795Z,90.30
2022-11-30T00:41:06.924Z,90.30
2022-11-30T00:44:12.552Z,90.30
2022-11-30T00:47:16.257Z,90.30
2022-11-30T00:50:19.943Z,90.30
2022-11-30T00:53:23.812Z,90.30
2022-11-30T00:56:27.472Z,90.30
2022-11-30T00:59:33.112Z,90.30
2022-11-30T01:02:36.877Z,90.30
2022-11-30T01:05:42.571Z,90.30
2022-11-30T01:08:47.454Z,90.30
2022-11-30T01:11:51.165Z,90.30
2022-11-30T01:14:56.866Z,90.30
2022-11-30T01:18:00.884Z,90.30
2022-11-30T01:21:07.765Z,90.30
2022-11-30T01:24:12.007Z,90.50
2022-11-30T01:27:15.726Z,90.20
2022-11-30T01:30:21.733Z,90.20
2022-11-30T01:33:25.531Z,90.20
2022-11-30T01:36:29.309Z,90.20
2022-11-30T01:39:32.961Z,90.20
2022-11-30T01:42:37.363Z,90.20
2022-11-30T01:45:43.131Z,90.20
2022-11-30T01:48:47.270Z,90.20
2022-11-30T01:51:55.332Z,90.20
2022-11-30T01:55:04.668Z,90.20
2022-11-30T01:58:11.585Z,90.20
2022-11-30T02:01:17.354Z,90.20
2022-11-30T02:04:24.889Z,90.20
2022-11-30T02:07:29.159Z,90.20
2022-11-30T02:10:37.090Z,90.10
2022-11-30T02:13:52.902Z,90.10
2022-11-30T02:17:11.234Z,90.10
2022-11-30T02:20:41.256Z,90.10
2022-11-30T02:24:07.849Z,90.10
2022-11-30T02:27:20.395Z,90.00
2022-11-30T02:30:26.592Z,90.10
2022-11-30T02:33:33.209Z,90.00
2022-11-30T02:36:38.274Z,90.10
2022-11-30T02:39:42.015Z,90.10
2022-11-30T02:42:45.722Z,90.10
2022-11-30T02:46:00.888Z,90.10
2022-11-30T02:49:11.388Z,90.10
2022-11-30T02:52:16.835Z,90.10
2022-11-30T02:55:22.045Z,90.10
2022-11-30T02:58:25.771Z,90.10
2022-11-30T03:01:31.975Z,90.20
2022-11-30T03:04:35.773Z,90.20
2022-11-30T03:07:39.667Z,90.20
2022-11-30T03:10:43.364Z,90.20
2022-11-30T03:13:47.088Z,90.20
2022-11-30T03:16:52.759Z,90.20
2022-11-30T03:19:56.496Z,90.20
2022-11-30T03:23:02.092Z,90.20
2022-11-30T03:26:07.668Z,90.20
2022-11-30T03:29:11.503Z,90.20
2022-11-30T03:32:17.360Z,90.20
2022-11-30T03:35:21.158Z,90.20
2022-11-30T03:38:24.855Z,90.20
2022-11-30T03:41:28.664Z,90.20
2022-11-30T03:44:32.376Z,90.20
2022-11-30T03:47:38.725Z,90.30
2022-11-30T03:50:42.451Z,90.30
2022-11-30T03:53:46.175Z,90.30
2022-11-30T03:56:49.904Z,90.30
2022-11-30T03:59:55.968Z,90.30
2022-11-30T04:03:01.689Z,90.30
2022-11-30T04:06:06.865Z,90.30
2022-11-30T04:09:11.057Z,90.30
2022-11-30T04:12:14.927Z,90.30
2022-11-30T04:15:18.562Z,90.30
2022-11-30T04:18:25.843Z,90.30
2022-11-30T04:21:29.622Z,90.20
2022-11-30T04:24:33.311Z,90.30
2022-11-30T04:27:37.002Z,90.30
2022-11-30T04:30:40.711Z,90.30
2022-11-30T04:33:46.316Z,90.30
2022-11-30T04:36:49.985Z,90.30
2022-11-30T04:39:53.653Z,90.30
2022-11-30T04:42:57.378Z,90.30
2022-11-30T04:46:01.095Z,90.30
2022-11-30T04:49:06.853Z,90.30
2022-11-30T04:52:10.664Z,90.30
2022-11-30T04:55:16.537Z,90.20
2022-11-30T04:58:20.156Z,90.30
2022-11-30T05:01:23.920Z,90.20
2022-11-30T05:04:29.636Z,90.30
2022-11-30T05:07:33.437Z,90.30
2022-11-30T05:10:37.224Z,90.30
2022-11-30T05:13:40.983Z,90.30
2022-11-30T05:16:44.723Z,90.30
2022-11-30T05:19:50.368Z,90.30
2022-11-30T05:22:54.043Z,90.30
2022-11-30T05:25:57.746Z,90.30
2022-11-30T05:29:01.455Z,90.30
2022-11-30T05:32:05.237Z,90.30
2022-11-30T05:35:11.504Z,90.30
2022-11-30T05:38:15.235Z,90.30
2022-11-30T05:41:18.885Z,90.30
2022-11-30T05:44:22.893Z,90.30
2022-11-30T05:47:26.296Z,90.30
2022-11-30T05:50:31.942Z,90.30
2022-11-30T05:53:36.971Z,90.20
2022-11-30T05:56:40.641Z,90.30
2022-11-30T05:59:44.342Z,90.30
2022-11-30T06:02:48.191Z,90.30
2022-11-30T06:05:53.776Z,90.30
2022-11-30T06:08:57.491Z,90.30
2022-11-30T06:12:01.413Z,90.30
2022-11-30T06:15:05.262Z,90.30
2022-11-30T06:18:10.465Z,90.40
2022-11-30T06:21:19.685Z,90.30
2022-11-30T06:24:27.766Z,90.30
2022-11-30T06:27:32.701Z,90.30
2022-11-30T06:30:36.464Z,90.30
2022-11-30T06:33:40.261Z,90.30
2022-11-30T06:36:45.951Z,90.30
2022-11-30T06:40:05.984Z,90.30
2022-11-30T06:43:10.788Z,90.40
2022-11-30T06:46:14.519Z,90.40
2022-11-30T06:49:18.255Z,90.40
2022-11-30T06:52:23.951Z,90.60
2022-11-30T06:55:29.270Z,90.30
2022-11-30T06:58:32.951Z,90.40
2022-11-30T07:01:36.592Z,90.30
2022-11-30T07:04:40.463Z,90.30
2022-11-30T07:07:46.137Z,90.30
2022-11-30T07:10:49.920Z,90.30
2022-11-30T07:13:53.631Z,90.30
2022-11-30T07:16:57.318Z,90.30
2022-11-30T07:20:00.993Z,90.30
2022-11-30T07:23:19.557Z,90.30
2022-11-30T07:26:23.522Z,90.30
2022-11-30T07:29:27.430Z,90.30
2022-11-30T07:32:31.215Z,90.30
2022-11-30T07:35:35.151Z,90.30
2022-11-30T07:38:40.791Z,90.30
2022-11-30T07:41:46.155Z,90.30
2022-11-30T07:44:55.277Z,90.30
2022-11-30T07:48:02.190Z,90.30
2022-11-30T07:51:06.143Z,90.30
2022-11-30T07:54:11.888Z,90.30
2022-11-30T07:57:15.652Z,90.30
2022-11-30T08:00:19.677Z,90.30
2022-11-30T08:03:23.599Z,90.30
2022-11-30T08:06:28.131Z,90.30
2022-11-30T08:09:33.852Z,90.30
2022-11-30T08:12:37.856Z,90.30
2022-11-30T08:15:42.628Z,90.20
2022-11-30T08:18:47.003Z,90.20
2022-11-30T08:21:50.748Z,90.30
2022-11-30T08:24:56.385Z,90.30
2022-11-30T08:28:00.079Z,90.30
2022-11-30T08:31:05.080Z,90.30
2022-11-30T08:34:11.478Z,90.30
2022-11-30T08:37:15.194Z,90.30
2022-11-30T08:40:20.946Z,90.30
2022-11-30T08:43:24.649Z,90.30
2022-11-30T08:49:52.707Z,90.30
2022-11-30T08:52:59.431Z,90.30
2022-11-30T08:56:12.166Z,90.30
2022-11-30T08:59:15.887Z,90.30
2022-11-30T09:02:20.771Z,90.30
2022-11-30T09:05:24.908Z,90.30
2022-11-30T09:08:28.639Z,90.30
2022-11-30T09:11:35.621Z,90.30
2022-11-30T09:14:39.373Z,90.30
2022-11-30T09:17:43.703Z,90.30
2022-11-30T09:20:47.627Z,90.20
2022-11-30T09:23:51.797Z,90.20
2022-11-30T09:26:58.782Z,90.20
2022-11-30T09:30:02.535Z,90.20
2022-11-30T09:33:06.225Z,90.20
2022-11-30T09:36:12.026Z,90.20
2022-11-30T09:39:15.947Z,90.20
2022-11-30T09:42:27.652Z,90.20
2022-11-30T09:45:34.532Z,90.20
2022-11-30T09:48:53.757Z,90.20
2022-11-30T09:51:59.978Z,90.20
2022-11-30T09:55:09.082Z,90.20
2022-11-30T09:58:24.549Z,90.20
2022-11-30T10:01:32.710Z,90.20
2022-11-30T10:04:37.678Z,90.10
2022-11-30T10:07:54.872Z,90.10
2022-11-30T10:11:12.179Z,90.10
2022-11-30T10:14:37.085Z,90.10
2022-11-30T10:17:47.617Z,90.10
2022-11-30T10:21:00.518Z,90.10
2022-11-30T10:24:17.204Z,90.10
2022-11-30T10:27:37.773Z,90.10
2022-11-30T10:30:43.989Z,90.10
2022-11-30T10:33:49.722Z,90.10
2022-11-30T10:37:00.617Z,90.10
2022-11-30T10:40:11.290Z,90.10
2022-11-30T10:43:21.992Z,90.10
2022-11-30T10:46:31.048Z,90.10
2022-11-30T10:49:37.034Z,90.10
2022-11-30T10:52:47.013Z,90.10
2022-11-30T10:56:00.267Z,90.10
2022-11-30T10:59:10.246Z,90.10
2022-11-30T11:02:44.728Z,90.10
2022-11-30T11:05:49.143Z,90.10
2022-11-30T11:08:52.952Z,90.10
2022-11-30T11:11:58.937Z,90.10
2022-11-30T11:15:11.024Z,90.10
2022-11-30T11:18:27.170Z,90.10
2022-11-30T11:21:30.915Z,90.10
2022-11-30T11:24:35.354Z,90.10
2022-11-30T11:27:44.670Z,90.10
2022-11-30T11:30:52.130Z,90.10
2022-11-30T11:33:57.816Z,90.30
2022-11-30T11:37:08.641Z,90.10
2022-11-30T11:40:17.802Z,90.10
2022-11-30T11:43:22.238Z,90.10
2022-11-30T11:46:26.739Z,90.10
2022-11-30T11:49:36.223Z,90.00
2022-11-30T11:52:40.208Z,90.30
2022-11-30T11:55:43.815Z,90.00
2022-11-30T11:58:52.317Z,90.10
2022-11-30T12:02:02.629Z,90.00
2022-11-30T12:05:16.105Z,90.00
2022-11-30T12:08:29.564Z,90.00
2022-11-30T12:11:41.007Z,90.00
2022-11-30T12:14:44.751Z,90.00
2022-11-30T12:17:59.364Z,90.00
2022-11-30T12:21:13.935Z,90.00
2022-11-30T12:24:55.523Z,90.00
2022-11-30T12:28:15.396Z,90.00
2022-11-30T12:31:19.972Z,90.00
2022-11-30T12:34:32.062Z,90.00
2022-11-30T12:37:50.094Z,90.00
2022-11-30T12:41:01.991Z,90.00
2022-11-30T12:44:29.635Z,90.00
2022-11-30T12:47:46.002Z,90.00
2022-11-30T12:51:02.222Z,90.00
2022-11-30T12:54:20.742Z,90.00
2022-11-30T12:57:28.484Z,90.00
2022-11-30T13:00:40.760Z,90.00
2022-11-30T13:03:54.899Z,90.00
2022-11-30T13:07:02.305Z,90.00
2022-11-30T13:10:20.112Z,90.00
2022-11-30T13:13:27.195Z,90.00
2022-11-30T13:16:34.127Z,90.00
2022-11-30T13:19:54.951Z,90.00
2022-11-30T13:23:04.216Z,90.00
2022-11-30T13:26:20.780Z,89.90
2022-11-30T13:29:46.848Z,89.90
2022-11-30T13:32:58.766Z,89.90
2022-11-30T13:36:06.141Z,89.90
2022-11-30T13:39:11.757Z,90.00
2022-11-30T13:42:34.304Z,90.00
2022-11-30T13:45:38.090Z,90.00
2022-11-30T13:48:43.924Z,89.90
2022-11-30T13:52:01.456Z,90.00
2022-11-30T13:55:41.372Z,90.00
2022-11-30T13:59:35.455Z,90.00
2022-11-30T14:03:14.753Z,90.00
2022-11-30T14:06:47.552Z,90.00
2022-11-30T14:09:59.787Z,90.00
2022-11-30T14:13:04.794Z,90.00
2022-11-30T14:16:24.531Z,89.90
2022-11-30T14:19:30.154Z,90.00
2022-11-30T14:22:34.620Z,90.00
2022-11-30T14:25:40.914Z,90.00
2022-11-30T14:29:02.047Z,90.00
2022-11-30T14:32:12.908Z,90.00
2022-11-30T14:35:20.612Z,90.00
2022-11-30T14:38:28.904Z,90.00
2022-11-30T14:41:33.278Z,90.00
2022-11-30T14:44:40.691Z,90.00
2022-11-30T14:47:48.241Z,90.00
2022-11-30T14:50:54.532Z,90.00
2022-11-30T14:54:05.809Z,90.00
2022-11-30T14:57:20.824Z,90.00
2022-11-30T15:00:24.916Z,90.00
2022-11-30T15:03:37.341Z,90.00
2022-11-30T15:06:45.002Z,90.00
2022-11-30T15:09:57.779Z,90.30
2022-11-30T15:13:03.857Z,90.00
2022-11-30T15:16:16.081Z,90.00
2022-11-30T15:19:24.669Z,90.00
2022-11-30T15:22:35.473Z,90.00
2022-11-30T15:25:42.351Z,90.00
2022-11-30T15:28:52.993Z,90.00
2022-11-30T15:31:58.833Z,90.00
2022-11-30T15:35:04.685Z,90.00
2022-11-30T15:38:10.500Z,90.00
2022-11-30T15:41:21.755Z,90.00
2022-11-30T15:44:28.003Z,90.00
2022-11-30T15:47:37.905Z,90.00
2022-11-30T15:50:43.834Z,90.00
2022-11-30T15:53:52.708Z,90.00
2022-11-30T15:56:58.701Z,90.00
2022-11-30T16:00:09.309Z,90.00
2022-11-30T16:03:14.753Z,90.00
2022-11-30T16:06:21.359Z,90.00
2022-11-30T16:09:31.791Z,90.00
2022-11-30T16:12:35.599Z,90.00
2022-11-30T16:15:40.228Z,90.00
2022-11-30T16:18:43.982Z,90.00
2022-11-30T16:21:50.646Z,90.00
2022-11-30T16:24:54.374Z,90.00
2022-11-30T16:27:58.129Z,90.00
2022-11-30T16:31:02.424Z,90.00
2022-11-30T16:34:08.128Z,90.00
2022-11-30T16:37:14.623Z,90.00
2022-11-30T16:40:19.254Z,90.00
2022-11-30T16:43:25.010Z,89.90
2022-11-30T16:46:30.758Z,90.00
2022-11-30T16:49:34.478Z,89.90
2022-11-30T16:52:40.371Z,90.00
2022-11-30T16:55:44.447Z,89.90
2022-11-30T16:58:48.677Z,90.00
2022-11-30T17:01:53.172Z,90.00
2022-11-30T17:04:57.015Z,90.00
2022-11-30T17:08:02.659Z,90.00
2022-11-30T17:11:06.812Z,90.00
2022-11-30T17:14:12.275Z,90.00
2022-11-30T17:17:16.007Z,90.00
2022-11-30T17:20:20.206Z,90.00
2022-11-30T17:23:25.876Z,90.00
2022-11-30T17:26:29.683Z,90.00
2022-11-30T17:29:33.817Z,90.00
2022-11-30T17:32:37.595Z,90.00
2022-11-30T17:35:41.395Z,90.00
2022-11-30T17:38:47.190Z,89.90
2022-11-30T17:41:51.071Z,89.90
2022-11-30T17:44:54.544Z,89.90
2022-11-30T17:47:59.253Z,89.90
2022-11-30T17:51:03.350Z,89.90
2022-11-30T17:54:09.140Z,90.00
2022-11-30T17:57:12.937Z,89.90
2022-11-30T18:00:18.076Z,89.90
2022-11-30T18:03:21.791Z,89.90
2022-11-30T18:06:25.638Z,89.90
2022-11-30T18:09:34.473Z,89.90
2022-11-30T18:12:42.006Z,89.80
2022-11-30T18:15:48.708Z,89.90
2022-11-30T18:18:57.884Z,90.00
2022-11-30T18:22:03.569Z,89.90
2022-11-30T18:25:10.031Z,89.90
2022-11-30T18:28:13.761Z,89.90
2022-11-30T18:31:17.567Z,89.90
2022-11-30T18:34:21.714Z,89.90
2022-11-30T18:37:25.428Z,89.90
2022-11-30T18:40:31.042Z,89.90
2022-11-30T18:43:34.971Z,89.90
2022-11-30T18:46:38.543Z,90.00
2022-11-30T18:49:42.595Z,89.90
2022-11-30T18:52:47.555Z,89.80
2022-11-30T18:55:53.379Z,89.80
2022-11-30T18:58:58.044Z,89.90
2022-11-30T19:02:01.943Z,89.90
2022-11-30T19:05:13.327Z,89.90
2022-11-30T19:08:25.866Z,89.80
2022-11-30T19:11:33.066Z,89.90
2022-11-30T19:14:42.085Z,89.90
2022-11-30T19:17:46.012Z,89.90
2022-11-30T19:20:49.830Z,89.90
2022-11-30T19:23:53.522Z,90.00
2022-11-30T19:27:01.540Z,89.80
2022-11-30T19:30:07.912Z,89.90
2022-11-30T19:33:14.342Z,89.90
2022-11-30T19:36:20.734Z,89.80
2022-11-30T19:39:24.528Z,89.90
2022-11-30T19:42:31.512Z,90.00
2022-11-30T19:45:36.104Z,90.00
2022-11-30T19:48:40.765Z,90.00
2022-11-30T19:51:45.542Z,90.00
2022-11-30T19:54:52.001Z,89.90
2022-11-30T19:57:59.026Z,89.90
2022-11-30T20:01:05.175Z,90.00
2022-11-30T20:04:09.719Z,89.90
2022-11-30T20:07:14.263Z,89.90
2022-11-30T20:10:18.136Z,90.00
2022-11-30T20:13:24.019Z,90.00
2022-11-30T20:16:28.847Z,90.00
2022-11-30T20:19:33.118Z,89.90
2022-11-30T20:22:37.102Z,90.00
2022-11-30T20:25:40.892Z,89.90
2022-11-30T20:28:46.617Z,89.90
2022-11-30T20:31:51.435Z,90.00
2022-11-30T20:34:55.139Z,90.00
2022-11-30T20:38:02.060Z,89.90
2022-11-30T20:41:09.282Z,90.00
2022-11-30T20:44:17.246Z,89.90
2022-11-30T20:47:20.960Z,89.90
2022-11-30T20:50:25.137Z,89.90
2022-11-30T20:53:29.052Z,90.00
2022-11-30T20:56:34.616Z,89.90
2022-11-30T20:59:41.892Z,90.00
2022-11-30T21:02:45.632Z,90.20
2022-11-30T21:05:49.638Z,89.90
2022-11-30T21:08:53.129Z,90.00
2022-11-30T21:11:56.820Z,90.00
2022-11-30T21:15:02.463Z,89.90
2022-11-30T21:18:07.380Z,90.00
2022-11-30T21:21:15.175Z,90.00
2022-11-30T21:24:19.628Z,90.00
2022-11-30T21:27:23.479Z,90.00
2022-11-30T21:30:28.934Z,90.00
2022-11-30T21:33:33.091Z,90.00
2022-11-30T21:36:37.078Z,90.00
2022-11-30T21:39:40.899Z,90.00
2022-11-30T21:42:45.111Z,90.00
2022-11-30T21:46:00.839Z,90.30
2022-11-30T21:49:05.122Z,90.00
2022-11-30T21:52:08.846Z,90.00
2022-11-30T21:55:12.529Z,90.00
2022-11-30T21:58:16.291Z,90.00
2022-11-30T22:01:23.766Z,90.00
2022-11-30T22:04:27.620Z,90.00
2022-11-30T22:07:33.082Z,90.00
2022-11-30T22:10:36.855Z,90.00
2022-11-30T22:13:40.941Z,90.00
2022-11-30T22:16:46.978Z,90.00
2022-11-30T22:19:50.837Z,90.00
2022-11-30T22:22:54.361Z,90.00
2022-11-30T22:26:12.940Z,90.00
2022-11-30T22:29:18.462Z,90.00
2022-11-30T22:32:24.120Z,90.00
2022-11-30T22:35:27.903Z,90.00
2022-11-30T22:38:32.342Z,90.00
2022-11-30T22:41:36.443Z,90.00
2022-11-30T22:44:40.125Z,90.00
2022-11-30T22:47:45.706Z,90.00
2022-11-30T22:50:49.435Z,90.00
2022-11-30T22:53:53.674Z,90.10
2022-11-30T22:56:57.355Z,90.00
2022-11-30T23:00:01.077Z,90.00
2022-11-30T23:03:07.001Z,90.00
2022-11-30T23:06:12.084Z,90.00
2022-11-30T23:09:18.387Z,90.10
2022-11-30T23:12:50.864Z,90.10
2022-11-30T23:15:45.870Z,90.10
2022-11-30T23:18:53.431Z,90.00
2022-11-30T23:21:57.238Z,90.10
2022-11-30T23:25:01.008Z,90.00
2022-11-30T23:28:04.828Z,90.10
2022-11-30T23:31:09.185Z,90.10
2022-11-30T23:34:21.568Z,90.10
2022-11-30T23:37:25.516Z,90.00
2022-11-30T23:40:29.265Z,90.00
2022-11-30T23:43:33.414Z,90.00
2022-11-30T23:46:37.650Z,90.00
2022-11-30T23:49:43.724Z,90.00
2022-11-30T23:52:47.546Z,90.00
2022-11-30T23:55:51.762Z,90.00
2022-11-30T23:58:55.519Z,90.00
